createdAt,value
2019-03-27T00:03:18.311Z,49.22
2019-03-27T00:08:18.480Z,48.72
2019-03-27T00:13:19.541Z,48.83
2019-03-27T00:18:19.587Z,49.13
2019-03-27T00:23:20.767Z,48.93
2019-03-27T00:28:20.950Z,48.83
2019-03-27T00:33:23.767Z,48.65
2019-03-27T00:38:23.927Z,48.32
2019-03-27T00:43:24.978Z,48.55
2019-03-27T00:48:25.197Z,48.55
2019-03-27T00:53:26.389Z,48.75
2019-03-27T00:58:26.527Z,49.05
2019-03-27T01:03:27.665Z,48.85
2019-03-27T01:08:27.854Z,48.35
2019-03-27T01:13:28.964Z,49.05
2019-03-27T01:18:29.144Z,49.05
2019-03-27T01:23:30.279Z,48.55
2019-03-27T01:28:30.537Z,49.05
2019-03-27T01:33:31.682Z,48.87
2019-03-27T01:38:31.823Z,49.18
2019-03-27T01:43:33.031Z,48.95
2019-03-27T01:48:33.173Z,48.87
2019-03-27T01:53:34.395Z,48.87
2019-03-27T01:58:35.865Z,48.97
2019-03-27T02:03:36.932Z,49.27
2019-03-27T02:08:37.292Z,48.97
2019-03-27T02:13:38.153Z,49.27
2019-03-27T02:18:38.368Z,48.37
2019-03-27T02:23:38.692Z,48.47
2019-03-27T02:28:38.773Z,48.47
2019-03-27T02:33:39.924Z,49.18
2019-03-27T02:38:40.013Z,48.97
2019-03-27T02:43:40.511Z,49.10
2019-03-27T02:48:40.633Z,48.49
2019-03-27T02:53:41.693Z,49.27
2019-03-27T02:58:41.808Z,49.07
2019-03-27T03:03:43.014Z,49.18
2019-03-27T03:08:43.023Z,48.90
2019-03-27T03:13:44.336Z,48.99
2019-03-27T03:18:44.632Z,49.10
2019-03-27T03:23:45.727Z,48.99
2019-03-27T03:28:45.932Z,48.90
2019-03-27T03:33:47.456Z,48.90
2019-03-27T03:38:47.307Z,48.69
2019-03-27T03:43:48.745Z,48.69
2019-03-27T03:48:48.999Z,48.59
2019-03-27T03:53:50.159Z,48.99
2019-03-27T03:58:50.281Z,48.39
2019-03-27T04:04:06.394Z,48.99
2019-03-27T08:31:53.984Z,43.94
2019-03-27T08:36:54.396Z,44.54
2019-03-27T08:41:55.629Z,44.44
2019-03-27T08:46:55.813Z,44.64
2019-03-27T08:51:56.816Z,44.44
2019-03-27T09:02:41.467Z,45.17
2019-03-27T09:07:41.586Z,44.89
2019-03-27T09:12:52.733Z,45.18
2019-03-27T09:17:52.794Z,45.49
2019-03-27T09:22:53.874Z,45.41
2019-03-27T09:27:53.994Z,45.31
2019-03-27T09:32:55.071Z,45.81
2019-03-27T09:37:55.186Z,46.61
2019-03-27T09:42:56.259Z,46.51
2019-03-27T09:47:56.338Z,46.92
2019-03-27T09:52:57.449Z,46.22
2019-03-27T09:57:57.563Z,47.12
2019-03-27T10:02:58.641Z,46.22
2019-03-27T10:07:58.756Z,45.53
2019-03-27T10:12:59.847Z,45.71
2019-03-27T10:17:59.923Z,44.87
2019-03-27T10:23:01.047Z,44.02
2019-03-27T10:28:01.144Z,42.90
2019-03-27T10:33:02.229Z,42.05
2019-03-27T10:38:02.343Z,41.03
2019-03-27T10:43:03.414Z,41.33
2019-03-27T10:48:03.534Z,40.61
2019-03-27T10:53:04.665Z,40.30
2019-03-27T10:58:04.772Z,40.17
2019-03-27T11:03:05.856Z,39.67
2019-03-27T11:08:05.964Z,39.56
2019-03-27T11:13:07.053Z,39.06
2019-03-27T11:18:07.161Z,39.15
2019-03-27T11:23:08.246Z,39.14
2019-03-27T11:28:08.331Z,38.76
2019-03-27T11:33:09.442Z,38.76
2019-03-27T11:38:09.523Z,35.46
2019-03-27T11:43:10.634Z,34.30
2019-03-27T11:48:10.743Z,35.81
2019-03-27T11:53:11.850Z,37.33
2019-03-27T11:58:14.769Z,37.21
2019-03-27T12:03:16.005Z,37.49
2019-03-27T12:08:16.171Z,37.29
2019-03-27T12:13:17.200Z,37.48
2019-03-27T12:18:17.314Z,37.06
2019-03-27T12:23:18.447Z,37.06
2019-03-27T12:28:18.553Z,37.54
2019-03-27T12:33:19.635Z,37.24
2019-03-27T12:38:19.748Z,37.24
2019-03-27T12:43:20.824Z,38.04
2019-03-27T12:48:20.943Z,37.64
2019-03-27T12:53:22.019Z,38.02
2019-03-27T12:58:22.128Z,38.54
2019-03-27T13:03:23.744Z,38.14
2019-03-27T13:08:23.883Z,38.54
2019-03-27T13:13:25.003Z,38.64
2019-03-27T13:18:25.112Z,38.14
2019-03-27T13:23:26.197Z,39.86
2019-03-27T13:28:26.299Z,39.43
2019-03-27T13:33:27.378Z,39.86
2019-03-27T13:38:27.497Z,40.25
2019-03-27T13:43:28.562Z,39.86
2019-03-27T13:48:28.639Z,39.86
2019-03-27T13:53:29.749Z,40.06
2019-03-27T13:58:29.866Z,40.25
2019-03-27T14:03:30.944Z,40.95
2019-03-27T14:08:31.063Z,41.36
2019-03-27T14:13:32.130Z,41.25
2019-03-27T14:18:32.256Z,41.05
2019-03-27T14:23:34.237Z,41.55
2019-03-27T14:28:34.517Z,41.16
2019-03-27T14:33:35.526Z,41.55
2019-03-27T14:38:35.648Z,41.46
2019-03-27T14:43:36.711Z,41.11
2019-03-27T14:48:36.768Z,40.92
2019-03-27T14:53:37.954Z,41.11
2019-03-27T14:58:37.959Z,40.59
2019-03-27T15:03:39.113Z,39.88
2019-03-27T15:08:39.215Z,38.25
2019-03-27T15:13:40.280Z,38.35
2019-03-27T15:18:40.403Z,38.25
2019-03-27T15:23:41.473Z,38.18
2019-03-27T15:28:41.594Z,39.08
2019-03-27T15:33:42.665Z,39.48
2019-03-27T15:38:42.779Z,38.78
2019-03-27T15:43:43.855Z,38.31
2019-03-27T15:48:43.896Z,39.60
2019-03-27T15:53:47.306Z,39.42
2019-03-27T15:58:48.146Z,39.94
2019-03-27T16:03:49.217Z,39.94
2019-03-27T16:08:49.324Z,40.44
2019-03-27T16:13:50.426Z,39.95
2019-03-27T16:18:50.451Z,40.45
2019-03-27T16:24:05.570Z,41.25
2019-03-27T16:28:56.715Z,41.17
2019-03-27T16:33:57.791Z,40.88
2019-03-27T16:38:57.920Z,41.27
2019-03-27T16:43:58.994Z,41.47
2019-03-27T16:48:59.068Z,41.47
2019-03-27T16:54:01.412Z,42.07
2019-03-27T16:59:01.311Z,41.49
2019-03-27T17:04:02.400Z,41.30
2019-03-27T17:09:02.537Z,41.99
2019-03-27T17:14:03.626Z,41.99
2019-03-27T17:19:04.942Z,42.10
2019-03-27T17:24:05.821Z,42.02
2019-03-27T17:29:05.936Z,42.11
2019-03-27T17:34:07.003Z,42.52
2019-03-27T17:39:07.120Z,42.52
2019-03-27T17:44:08.280Z,42.52
2019-03-27T17:49:09.573Z,42.11
2019-03-27T17:54:20.336Z,42.71
2019-03-27T17:59:15.782Z,42.61
2019-03-27T18:04:16.866Z,42.82
2019-03-27T18:09:16.977Z,42.71
2019-03-27T18:14:18.057Z,42.71
2019-03-27T18:19:18.172Z,42.52
2019-03-27T18:24:21.649Z,43.12
2019-03-27T18:29:21.362Z,43.41
2019-03-27T18:34:22.448Z,42.63
2019-03-27T18:39:22.482Z,42.91
2019-03-27T18:44:23.633Z,43.12
2019-03-27T18:49:23.731Z,43.41
2019-03-27T18:54:24.803Z,42.52
2019-03-27T18:59:24.926Z,43.91
2019-03-27T19:04:25.998Z,43.91
2019-03-27T19:09:26.110Z,43.32
2019-03-27T19:14:27.197Z,43.21
2019-03-27T19:19:27.294Z,42.60
2019-03-27T19:24:29.579Z,42.61
2019-03-27T19:29:29.486Z,42.82
2019-03-27T19:34:30.550Z,42.49
2019-03-27T19:39:31.865Z,41.60
2019-03-27T19:44:32.938Z,42.19
2019-03-27T19:49:34.285Z,42.52
2019-03-27T19:54:35.137Z,42.91
2019-03-27T19:59:36.452Z,43.01
2019-03-27T20:04:39.086Z,43.41
2019-03-27T20:09:39.202Z,43.93
2019-03-27T20:14:42.493Z,43.93
2019-03-27T20:19:42.389Z,44.54
2019-03-27T20:24:43.467Z,44.06
2019-03-27T20:29:46.416Z,44.96
2019-03-27T20:34:47.647Z,45.36
2019-03-27T20:39:47.696Z,45.18
2019-03-27T20:44:48.857Z,45.88
2019-03-27T20:49:48.973Z,45.48
2019-03-27T20:54:55.383Z,46.50
2019-03-27T20:59:55.191Z,46.11
2019-03-27T21:04:56.287Z,46.20
2019-03-27T21:09:56.383Z,47.11
2019-03-27T21:14:57.449Z,47.31
2019-03-27T21:19:57.562Z,47.53
2019-03-27T21:25:08.627Z,47.43
2019-03-27T21:30:03.749Z,47.33
2019-03-27T21:35:04.795Z,47.23
2019-03-27T21:40:05.193Z,47.53
2019-03-27T21:45:06.374Z,47.53
2019-03-27T21:50:06.241Z,47.85
2019-03-27T21:55:07.362Z,48.46
2019-03-27T22:00:07.502Z,47.96
2019-03-27T22:05:10.324Z,48.46
2019-03-27T22:10:10.442Z,48.55
2019-03-27T22:16:42.852Z,48.86
2019-03-27T22:21:42.879Z,48.35
2019-03-27T22:26:43.578Z,48.35
2019-03-27T22:31:45.128Z,48.96
2019-03-27T22:36:45.235Z,48.96
2019-03-27T22:41:47.276Z,48.96
2019-03-27T22:46:47.424Z,49.05
2019-03-27T22:51:48.497Z,48.66
2019-03-27T22:56:48.608Z,49.05
2019-03-27T23:01:49.685Z,48.55
2019-03-27T23:06:49.805Z,48.78
2019-03-27T23:11:50.877Z,49.05
2019-03-27T23:16:50.949Z,48.38
2019-03-27T23:21:52.068Z,48.58
2019-03-27T23:26:52.202Z,48.48
2019-03-27T23:31:53.282Z,48.78
2019-03-27T23:36:53.373Z,49.01
2019-03-27T23:41:54.488Z,48.40
2019-03-27T23:46:54.570Z,48.70
2019-03-27T23:51:55.682Z,48.50
2019-03-27T23:56:55.795Z,48.50
